sensor_id;sensor_type;location;lat;lon;timestamp;P1;durP1;ratioP1;P2;durP2;ratioP2
83145;SDS011;73037;51.110;4.706;2023-10-31T00:02:10;17.45;;;6.03;;
83145;SDS011;73037;51.110;4.706;2023-10-31T00:04:36;16.20;;;6.85;;
83145;SDS011;73037;51.110;4.706;2023-10-31T00:07:02;19.27;;;6.97;;
83145;SDS011;73037;51.110;4.706;2023-10-31T00:09:28;15.10;;;6.38;;
83145;SDS011;73037;51.110;4.706;2023-10-31T00:11:54;16.92;;;6.28;;
83145;SDS011;73037;51.110;4.706;2023-10-31T00:14:20;17.45;;;6.65;;
83145;SDS011;73037;51.110;4.706;2023-10-31T00:16:45;21.83;;;6.50;;
83145;SDS011;73037;51.110;4.706;2023-10-31T00:19:13;19.75;;;7.55;;
83145;SDS011;73037;51.110;4.706;2023-10-31T00:21:39;22.45;;;7.40;;
83145;SDS011;73037;51.110;4.706;2023-10-31T00:24:05;20.95;;;7.75;;
83145;SDS011;73037;51.110;4.706;2023-10-31T00:26:30;18.38;;;7.25;;
83145;SDS011;73037;51.110;4.706;2023-10-31T00:28:56;28.05;;;8.98;;
83145;SDS011;73037;51.110;4.706;2023-10-31T00:31:22;22.92;;;8.38;;
83145;SDS011;73037;51.110;4.706;2023-10-31T00:33:47;30.60;;;8.75;;
83145;SDS011;73037;51.110;4.706;2023-10-31T00:36:13;24.70;;;9.20;;
83145;SDS011;73037;51.110;4.706;2023-10-31T00:38:39;27.88;;;9.20;;
83145;SDS011;73037;51.110;4.706;2023-10-31T00:41:04;27.95;;;9.35;;
83145;SDS011;73037;51.110;4.706;2023-10-31T00:43:30;25.75;;;9.52;;
83145;SDS011;73037;51.110;4.706;2023-10-31T00:45:56;30.35;;;9.68;;
83145;SDS011;73037;51.110;4.706;2023-10-31T00:48:21;26.65;;;9.18;;
83145;SDS011;73037;51.110;4.706;2023-10-31T00:50:47;31.02;;;9.38;;
83145;SDS011;73037;51.110;4.706;2023-10-31T00:53:13;28.10;;;9.60;;
83145;SDS011;73037;51.110;4.706;2023-10-31T00:55:39;31.45;;;9.70;;
83145;SDS011;73037;51.110;4.706;2023-10-31T00:58:05;23.00;;;8.60;;
83145;SDS011;73037;51.110;4.706;2023-10-31T01:00:31;24.90;;;8.10;;
83145;SDS011;73037;51.110;4.706;2023-10-31T01:02:57;26.85;;;8.20;;
83145;SDS011;73037;51.110;4.706;2023-10-31T01:05:22;26.00;;;7.32;;
83145;SDS011;73037;51.110;4.706;2023-10-31T01:07:48;26.60;;;8.27;;
83145;SDS011;73037;51.110;4.706;2023-10-31T01:10:14;22.98;;;8.02;;
83145;SDS011;73037;51.110;4.706;2023-10-31T01:12:40;29.35;;;8.13;;
83145;SDS011;73037;51.110;4.706;2023-10-31T01:15:05;33.17;;;9.30;;
83145;SDS011;73037;51.110;4.706;2023-10-31T01:17:32;35.67;;;10.30;;
83145;SDS011;73037;51.110;4.706;2023-10-31T01:19:57;35.08;;;10.70;;
83145;SDS011;73037;51.110;4.706;2023-10-31T01:22:23;32.72;;;11.07;;
83145;SDS011;73037;51.110;4.706;2023-10-31T01:24:49;38.90;;;11.75;;
83145;SDS011;73037;51.110;4.706;2023-10-31T01:27:14;43.15;;;12.10;;
83145;SDS011;73037;51.110;4.706;2023-10-31T01:29:40;52.00;;;13.25;;
83145;SDS011;73037;51.110;4.706;2023-10-31T01:32:06;49.15;;;14.13;;
83145;SDS011;73037;51.110;4.706;2023-10-31T01:34:32;51.67;;;13.07;;
83145;SDS011;73037;51.110;4.706;2023-10-31T01:36:57;48.35;;;12.80;;
83145;SDS011;73037;51.110;4.706;2023-10-31T01:39:23;45.53;;;14.05;;
83145;SDS011;73037;51.110;4.706;2023-10-31T01:41:49;35.75;;;12.18;;
83145;SDS011;73037;51.110;4.706;2023-10-31T01:44:14;40.85;;;12.30;;
83145;SDS011;73037;51.110;4.706;2023-10-31T01:46:40;50.80;;;12.75;;
83145;SDS011;73037;51.110;4.706;2023-10-31T01:49:06;42.70;;;12.80;;
83145;SDS011;73037;51.110;4.706;2023-10-31T01:51:32;50.28;;;12.57;;
83145;SDS011;73037;51.110;4.706;2023-10-31T01:53:58;41.10;;;15.35;;
83145;SDS011;73037;51.110;4.706;2023-10-31T01:56:24;37.25;;;11.48;;
83145;SDS011;73037;51.110;4.706;2023-10-31T01:58:50;40.00;;;12.20;;
83145;SDS011;73037;51.110;4.706;2023-10-31T02:01:18;41.50;;;11.13;;
83145;SDS011;73037;51.110;4.706;2023-10-31T02:03:44;35.15;;;11.30;;
83145;SDS011;73037;51.110;4.706;2023-10-31T02:06:10;34.10;;;11.20;;
83145;SDS011;73037;51.110;4.706;2023-10-31T02:08:36;33.67;;;10.95;;
83145;SDS011;73037;51.110;4.706;2023-10-31T02:11:02;37.28;;;11.30;;
83145;SDS011;73037;51.110;4.706;2023-10-31T02:13:28;35.05;;;11.00;;
83145;SDS011;73037;51.110;4.706;2023-10-31T02:15:54;28.45;;;10.65;;
83145;SDS011;73037;51.110;4.706;2023-10-31T02:18:20;23.80;;;9.10;;
83145;SDS011;73037;51.110;4.706;2023-10-31T02:20:46;28.83;;;10.15;;
83145;SDS011;73037;51.110;4.706;2023-10-31T02:23:11;24.20;;;9.30;;
83145;SDS011;73037;51.110;4.706;2023-10-31T02:25:40;21.52;;;9.50;;
83145;SDS011;73037;51.110;4.706;2023-10-31T02:28:05;22.17;;;9.00;;
83145;SDS011;73037;51.110;4.706;2023-10-31T02:30:31;23.80;;;9.57;;
83145;SDS011;73037;51.110;4.706;2023-10-31T02:33:00;21.48;;;9.25;;
83145;SDS011;73037;51.110;4.706;2023-10-31T02:35:26;27.05;;;9.52;;
83145;SDS011;73037;51.110;4.706;2023-10-31T02:37:52;26.80;;;9.23;;
83145;SDS011;73037;51.110;4.706;2023-10-31T02:40:18;21.55;;;8.65;;
83145;SDS011;73037;51.110;4.706;2023-10-31T02:42:44;21.83;;;8.90;;
83145;SDS011;73037;51.110;4.706;2023-10-31T02:45:09;23.55;;;9.15;;
83145;SDS011;73037;51.110;4.706;2023-10-31T02:47:35;23.77;;;9.07;;
83145;SDS011;73037;51.110;4.706;2023-10-31T02:50:01;22.63;;;8.75;;
83145;SDS011;73037;51.110;4.706;2023-10-31T02:52:27;25.98;;;9.02;;
83145;SDS011;73037;51.110;4.706;2023-10-31T02:54:52;18.45;;;8.05;;
83145;SDS011;73037;51.110;4.706;2023-10-31T02:57:18;17.92;;;7.60;;
83145;SDS011;73037;51.110;4.706;2023-10-31T02:59:43;20.45;;;8.15;;
83145;SDS011;73037;51.110;4.706;2023-10-31T03:02:09;16.40;;;7.63;;
83145;SDS011;73037;51.110;4.706;2023-10-31T03:04:36;16.75;;;7.57;;
83145;SDS011;73037;51.110;4.706;2023-10-31T03:07:02;20.02;;;7.55;;
83145;SDS011;73037;51.110;4.706;2023-10-31T03:09:28;18.40;;;7.30;;
83145;SDS011;73037;51.110;4.706;2023-10-31T03:11:54;16.70;;;7.18;;
83145;SDS011;73037;51.110;4.706;2023-10-31T03:14:19;17.80;;;7.63;;
83145;SDS011;73037;51.110;4.706;2023-10-31T03:16:45;16.52;;;7.38;;
83145;SDS011;73037;51.110;4.706;2023-10-31T03:19:11;14.48;;;7.25;;
83145;SDS011;73037;51.110;4.706;2023-10-31T03:21:37;15.50;;;7.47;;
83145;SDS011;73037;51.110;4.706;2023-10-31T03:24:03;14.40;;;6.95;;
83145;SDS011;73037;51.110;4.706;2023-10-31T03:26:29;12.15;;;6.55;;
83145;SDS011;73037;51.110;4.706;2023-10-31T03:28:54;14.02;;;7.20;;
83145;SDS011;73037;51.110;4.706;2023-10-31T03:31:22;12.45;;;6.50;;
83145;SDS011;73037;51.110;4.706;2023-10-31T03:33:49;14.45;;;6.55;;
83145;SDS011;73037;51.110;4.706;2023-10-31T03:36:15;11.07;;;5.68;;
83145;SDS011;73037;51.110;4.706;2023-10-31T03:38:40;12.63;;;6.18;;
83145;SDS011;73037;51.110;4.706;2023-10-31T03:41:07;14.95;;;6.72;;
83145;SDS011;73037;51.110;4.706;2023-10-31T03:43:33;14.52;;;5.72;;
83145;SDS011;73037;51.110;4.706;2023-10-31T03:45:59;14.43;;;6.22;;
83145;SDS011;73037;51.110;4.706;2023-10-31T03:48:25;10.73;;;5.50;;
83145;SDS011;73037;51.110;4.706;2023-10-31T03:50:51;11.02;;;5.60;;
83145;SDS011;73037;51.110;4.706;2023-10-31T03:53:17;13.27;;;5.40;;
83145;SDS011;73037;51.110;4.706;2023-10-31T03:55:43;12.35;;;5.80;;
83145;SDS011;73037;51.110;4.706;2023-10-31T03:58:08;15.57;;;5.72;;
83145;SDS011;73037;51.110;4.706;2023-10-31T04:00:34;11.40;;;6.07;;
83145;SDS011;73037;51.110;4.706;2023-10-31T04:03:00;13.35;;;5.90;;
83145;SDS011;73037;51.110;4.706;2023-10-31T04:05:26;11.30;;;5.80;;
83145;SDS011;73037;51.110;4.706;2023-10-31T04:07:51;9.15;;;5.50;;
83145;SDS011;73037;51.110;4.706;2023-10-31T04:10:18;12.65;;;5.95;;
83145;SDS011;73037;51.110;4.706;2023-10-31T04:12:44;11.77;;;5.65;;
83145;SDS011;73037;51.110;4.706;2023-10-31T04:15:10;12.90;;;6.93;;
83145;SDS011;73037;51.110;4.706;2023-10-31T04:17:37;16.95;;;7.95;;
83145;SDS011;73037;51.110;4.706;2023-10-31T04:20:03;13.57;;;6.70;;
83145;SDS011;73037;51.110;4.706;2023-10-31T04:22:29;11.82;;;5.68;;
83145;SDS011;73037;51.110;4.706;2023-10-31T04:24:55;16.05;;;7.30;;
83145;SDS011;73037;51.110;4.706;2023-10-31T04:27:21;13.82;;;6.53;;
83145;SDS011;73037;51.110;4.706;2023-10-31T04:29:47;12.20;;;6.30;;
83145;SDS011;73037;51.110;4.706;2023-10-31T04:32:12;14.30;;;7.63;;
83145;SDS011;73037;51.110;4.706;2023-10-31T04:34:38;11.32;;;6.10;;
83145;SDS011;73037;51.110;4.706;2023-10-31T04:37:04;14.52;;;6.25;;
83145;SDS011;73037;51.110;4.706;2023-10-31T04:39:30;13.48;;;5.85;;
83145;SDS011;73037;51.110;4.706;2023-10-31T04:41:56;13.25;;;6.15;;
83145;SDS011;73037;51.110;4.706;2023-10-31T04:44:22;13.15;;;5.47;;
83145;SDS011;73037;51.110;4.706;2023-10-31T04:46:47;13.40;;;5.63;;
83145;SDS011;73037;51.110;4.706;2023-10-31T04:49:13;15.05;;;6.30;;
83145;SDS011;73037;51.110;4.706;2023-10-31T04:51:40;13.07;;;6.10;;
83145;SDS011;73037;51.110;4.706;2023-10-31T04:54:06;12.55;;;5.75;;
83145;SDS011;73037;51.110;4.706;2023-10-31T04:56:32;15.07;;;6.18;;
83145;SDS011;73037;51.110;4.706;2023-10-31T04:58:58;11.93;;;6.30;;
83145;SDS011;73037;51.110;4.706;2023-10-31T05:01:24;12.70;;;6.05;;
83145;SDS011;73037;51.110;4.706;2023-10-31T05:03:50;11.55;;;5.78;;
83145;SDS011;73037;51.110;4.706;2023-10-31T05:06:20;15.07;;;5.38;;
83145;SDS011;73037;51.110;4.706;2023-10-31T05:08:47;12.35;;;5.68;;
83145;SDS011;73037;51.110;4.706;2023-10-31T05:11:13;12.02;;;5.72;;
83145;SDS011;73037;51.110;4.706;2023-10-31T05:13:41;14.13;;;5.30;;
83145;SDS011;73037;51.110;4.706;2023-10-31T05:16:07;12.27;;;5.07;;
83145;SDS011;73037;51.110;4.706;2023-10-31T05:18:32;10.38;;;4.80;;
83145;SDS011;73037;51.110;4.706;2023-10-31T05:21:01;12.65;;;5.47;;
83145;SDS011;73037;51.110;4.706;2023-10-31T05:23:27;9.82;;;5.20;;
83145;SDS011;73037;51.110;4.706;2023-10-31T05:25:52;14.20;;;5.18;;
83145;SDS011;73037;51.110;4.706;2023-10-31T05:28:18;11.98;;;4.93;;
83145;SDS011;73037;51.110;4.706;2023-10-31T05:30:44;9.90;;;4.88;;
83145;SDS011;73037;51.110;4.706;2023-10-31T05:33:09;13.50;;;4.97;;
83145;SDS011;73037;51.110;4.706;2023-10-31T05:35:35;19.33;;;7.97;;
83145;SDS011;73037;51.110;4.706;2023-10-31T05:38:00;14.75;;;6.68;;
83145;SDS011;73037;51.110;4.706;2023-10-31T05:40:26;14.18;;;6.07;;
83145;SDS011;73037;51.110;4.706;2023-10-31T05:42:54;12.85;;;6.55;;
83145;SDS011;73037;51.110;4.706;2023-10-31T05:45:20;14.95;;;7.32;;
83145;SDS011;73037;51.110;4.706;2023-10-31T05:47:45;11.10;;;5.70;;
83145;SDS011;73037;51.110;4.706;2023-10-31T05:50:11;8.70;;;5.22;;
83145;SDS011;73037;51.110;4.706;2023-10-31T05:52:37;12.10;;;5.82;;
83145;SDS011;73037;51.110;4.706;2023-10-31T05:55:02;12.27;;;5.40;;
83145;SDS011;73037;51.110;4.706;2023-10-31T05:57:28;16.27;;;6.00;;
83145;SDS011;73037;51.110;4.706;2023-10-31T05:59:54;13.23;;;6.22;;
83145;SDS011;73037;51.110;4.706;2023-10-31T06:02:20;19.13;;;6.40;;
83145;SDS011;73037;51.110;4.706;2023-10-31T06:04:45;15.35;;;7.13;;
83145;SDS011;73037;51.110;4.706;2023-10-31T06:07:11;18.08;;;6.80;;
83145;SDS011;73037;51.110;4.706;2023-10-31T06:09:37;17.52;;;7.47;;
83145;SDS011;73037;51.110;4.706;2023-10-31T06:12:02;16.75;;;8.10;;
83145;SDS011;73037;51.110;4.706;2023-10-31T06:14:28;17.02;;;7.32;;
83145;SDS011;73037;51.110;4.706;2023-10-31T06:16:54;15.95;;;7.82;;
83145;SDS011;73037;51.110;4.706;2023-10-31T06:19:21;16.63;;;7.45;;
83145;SDS011;73037;51.110;4.706;2023-10-31T06:21:47;16.45;;;7.55;;
83145;SDS011;73037;51.110;4.706;2023-10-31T06:24:13;14.68;;;7.45;;
83145;SDS011;73037;51.110;4.706;2023-10-31T06:26:39;16.45;;;7.72;;
83145;SDS011;73037;51.110;4.706;2023-10-31T06:29:05;23.42;;;8.18;;
83145;SDS011;73037;51.110;4.706;2023-10-31T06:31:30;16.45;;;7.97;;
83145;SDS011;73037;51.110;4.706;2023-10-31T06:33:56;16.35;;;7.93;;
83145;SDS011;73037;51.110;4.706;2023-10-31T06:36:22;16.70;;;8.13;;
83145;SDS011;73037;51.110;4.706;2023-10-31T06:38:48;17.65;;;8.45;;
83145;SDS011;73037;51.110;4.706;2023-10-31T06:41:13;17.35;;;7.68;;
83145;SDS011;73037;51.110;4.706;2023-10-31T06:43:39;15.60;;;7.93;;
83145;SDS011;73037;51.110;4.706;2023-10-31T06:46:05;16.05;;;8.18;;
83145;SDS011;73037;51.110;4.706;2023-10-31T06:48:31;15.52;;;7.70;;
83145;SDS011;73037;51.110;4.706;2023-10-31T06:50:57;16.65;;;8.10;;
83145;SDS011;73037;51.110;4.706;2023-10-31T06:53:23;18.88;;;8.20;;
83145;SDS011;73037;51.110;4.706;2023-10-31T06:55:48;17.42;;;8.88;;
83145;SDS011;73037;51.110;4.706;2023-10-31T06:58:14;20.67;;;8.63;;
83145;SDS011;73037;51.110;4.706;2023-10-31T07:00:40;27.88;;;9.23;;
83145;SDS011;73037;51.110;4.706;2023-10-31T07:03:05;22.85;;;8.88;;
83145;SDS011;73037;51.110;4.706;2023-10-31T07:05:37;20.55;;;8.85;;
83145;SDS011;73037;51.110;4.706;2023-10-31T07:08:03;22.30;;;8.38;;
83145;SDS011;73037;51.110;4.706;2023-10-31T07:10:30;24.08;;;9.57;;
83145;SDS011;73037;51.110;4.706;2023-10-31T07:12:56;25.92;;;9.23;;
83145;SDS011;73037;51.110;4.706;2023-10-31T07:15:23;23.17;;;8.77;;
83145;SDS011;73037;51.110;4.706;2023-10-31T07:17:49;25.27;;;8.60;;
83145;SDS011;73037;51.110;4.706;2023-10-31T07:20:15;25.45;;;8.73;;
83145;SDS011;73037;51.110;4.706;2023-10-31T07:22:41;22.60;;;8.68;;
83145;SDS011;73037;51.110;4.706;2023-10-31T07:25:06;25.27;;;8.93;;
83145;SDS011;73037;51.110;4.706;2023-10-31T07:27:32;23.77;;;8.52;;
83145;SDS011;73037;51.110;4.706;2023-10-31T07:29:58;26.77;;;9.82;;
83145;SDS011;73037;51.110;4.706;2023-10-31T07:32:24;30.88;;;10.18;;
83145;SDS011;73037;51.110;4.706;2023-10-31T07:34:50;26.95;;;9.32;;
83145;SDS011;73037;51.110;4.706;2023-10-31T07:37:16;25.25;;;10.00;;
83145;SDS011;73037;51.110;4.706;2023-10-31T07:39:42;29.15;;;9.88;;
83145;SDS011;73037;51.110;4.706;2023-10-31T07:42:07;36.30;;;10.50;;
83145;SDS011;73037;51.110;4.706;2023-10-31T07:44:33;31.85;;;9.82;;
83145;SDS011;73037;51.110;4.706;2023-10-31T07:46:59;26.92;;;9.82;;
83145;SDS011;73037;51.110;4.706;2023-10-31T07:49:25;31.63;;;10.20;;
83145;SDS011;73037;51.110;4.706;2023-10-31T07:51:51;31.70;;;10.15;;
83145;SDS011;73037;51.110;4.706;2023-10-31T07:54:16;27.30;;;10.15;;
83145;SDS011;73037;51.110;4.706;2023-10-31T07:56:42;26.63;;;10.25;;
83145;SDS011;73037;51.110;4.706;2023-10-31T07:59:08;26.60;;;9.77;;
83145;SDS011;73037;51.110;4.706;2023-10-31T08:01:34;25.52;;;9.77;;
83145;SDS011;73037;51.110;4.706;2023-10-31T08:04:00;32.35;;;9.82;;
83145;SDS011;73037;51.110;4.706;2023-10-31T08:06:26;29.02;;;10.35;;
83145;SDS011;73037;51.110;4.706;2023-10-31T08:08:52;23.65;;;10.10;;
83145;SDS011;73037;51.110;4.706;2023-10-31T08:11:18;25.30;;;9.65;;
83145;SDS011;73037;51.110;4.706;2023-10-31T08:13:43;24.05;;;9.82;;
83145;SDS011;73037;51.110;4.706;2023-10-31T08:16:09;25.83;;;9.27;;
83145;SDS011;73037;51.110;4.706;2023-10-31T08:18:35;29.52;;;9.88;;
83145;SDS011;73037;51.110;4.706;2023-10-31T08:21:01;21.08;;;9.18;;
83145;SDS011;73037;51.110;4.706;2023-10-31T08:23:28;28.60;;;9.20;;
83145;SDS011;73037;51.110;4.706;2023-10-31T08:25:54;24.13;;;9.15;;
83145;SDS011;73037;51.110;4.706;2023-10-31T08:28:20;22.42;;;8.80;;
83145;SDS011;73037;51.110;4.706;2023-10-31T08:30:46;19.88;;;8.40;;
83145;SDS011;73037;51.110;4.706;2023-10-31T08:33:12;18.10;;;7.68;;
83145;SDS011;73037;51.110;4.706;2023-10-31T08:35:39;17.42;;;8.05;;
83145;SDS011;73037;51.110;4.706;2023-10-31T08:38:05;16.85;;;7.57;;
83145;SDS011;73037;51.110;4.706;2023-10-31T08:40:30;20.52;;;8.80;;
83145;SDS011;73037;51.110;4.706;2023-10-31T08:42:56;16.88;;;7.53;;
83145;SDS011;73037;51.110;4.706;2023-10-31T08:45:22;15.95;;;7.75;;
83145;SDS011;73037;51.110;4.706;2023-10-31T08:47:47;17.42;;;7.15;;
83145;SDS011;73037;51.110;4.706;2023-10-31T08:50:13;15.60;;;6.78;;
83145;SDS011;73037;51.110;4.706;2023-10-31T08:52:39;17.08;;;6.80;;
83145;SDS011;73037;51.110;4.706;2023-10-31T08:55:05;14.07;;;6.50;;
83145;SDS011;73037;51.110;4.706;2023-10-31T08:57:31;15.32;;;7.07;;
83145;SDS011;73037;51.110;4.706;2023-10-31T08:59:59;13.30;;;6.78;;
83145;SDS011;73037;51.110;4.706;2023-10-31T09:02:25;13.13;;;6.90;;
83145;SDS011;73037;51.110;4.706;2023-10-31T09:04:51;12.32;;;6.72;;
83145;SDS011;73037;51.110;4.706;2023-10-31T09:07:16;12.88;;;7.28;;
83145;SDS011;73037;51.110;4.706;2023-10-31T09:09:42;16.80;;;7.50;;
83145;SDS011;73037;51.110;4.706;2023-10-31T09:12:08;13.23;;;6.93;;
83145;SDS011;73037;51.110;4.706;2023-10-31T09:14:34;14.20;;;6.75;;
83145;SDS011;73037;51.110;4.706;2023-10-31T09:17:00;14.27;;;6.88;;
83145;SDS011;73037;51.110;4.706;2023-10-31T09:19:26;11.98;;;6.28;;
83145;SDS011;73037;51.110;4.706;2023-10-31T09:21:52;14.15;;;7.00;;
83145;SDS011;73037;51.110;4.706;2023-10-31T09:24:17;11.93;;;5.95;;
83145;SDS011;73037;51.110;4.706;2023-10-31T09:26:43;10.70;;;5.82;;
83145;SDS011;73037;51.110;4.706;2023-10-31T09:29:12;10.70;;;5.63;;
83145;SDS011;73037;51.110;4.706;2023-10-31T09:31:38;11.40;;;5.95;;
83145;SDS011;73037;51.110;4.706;2023-10-31T09:34:03;10.48;;;5.80;;
83145;SDS011;73037;51.110;4.706;2023-10-31T09:36:32;13.00;;;6.07;;
83145;SDS011;73037;51.110;4.706;2023-10-31T09:39:01;11.23;;;6.60;;
83145;SDS011;73037;51.110;4.706;2023-10-31T09:41:28;12.30;;;6.15;;
83145;SDS011;73037;51.110;4.706;2023-10-31T09:43:55;9.60;;;5.57;;
83145;SDS011;73037;51.110;4.706;2023-10-31T09:46:21;9.43;;;5.72;;
83145;SDS011;73037;51.110;4.706;2023-10-31T09:48:47;9.95;;;5.10;;
83145;SDS011;73037;51.110;4.706;2023-10-31T09:51:14;9.82;;;4.93;;
83145;SDS011;73037;51.110;4.706;2023-10-31T09:53:40;10.80;;;4.60;;
83145;SDS011;73037;51.110;4.706;2023-10-31T09:56:09;9.32;;;4.68;;
83145;SDS011;73037;51.110;4.706;2023-10-31T09:58:36;9.88;;;5.10;;
83145;SDS011;73037;51.110;4.706;2023-10-31T10:01:02;7.47;;;4.55;;
83145;SDS011;73037;51.110;4.706;2023-10-31T10:03:28;8.35;;;4.70;;
83145;SDS011;73037;51.110;4.706;2023-10-31T10:05:54;7.63;;;4.95;;
83145;SDS011;73037;51.110;4.706;2023-10-31T10:08:22;8.93;;;5.28;;
83145;SDS011;73037;51.110;4.706;2023-10-31T10:10:50;7.68;;;4.93;;
83145;SDS011;73037;51.110;4.706;2023-10-31T10:13:22;7.82;;;5.15;;
83145;SDS011;73037;51.110;4.706;2023-10-31T10:15:49;8.90;;;5.28;;
83145;SDS011;73037;51.110;4.706;2023-10-31T10:18:29;9.07;;;5.40;;
83145;SDS011;73037;51.110;4.706;2023-10-31T10:20:58;8.95;;;5.40;;
83145;SDS011;73037;51.110;4.706;2023-10-31T10:23:25;9.95;;;5.43;;
83145;SDS011;73037;51.110;4.706;2023-10-31T10:25:52;12.90;;;5.93;;
83145;SDS011;73037;51.110;4.706;2023-10-31T10:28:19;8.65;;;5.25;;
83145;SDS011;73037;51.110;4.706;2023-10-31T10:30:45;9.98;;;4.70;;
83145;SDS011;73037;51.110;4.706;2023-10-31T10:33:12;11.60;;;4.68;;
83145;SDS011;73037;51.110;4.706;2023-10-31T10:35:39;7.43;;;4.43;;
83145;SDS011;73037;51.110;4.706;2023-10-31T10:38:12;7.82;;;4.90;;
83145;SDS011;73037;51.110;4.706;2023-10-31T10:40:39;10.05;;;4.80;;
83145;SDS011;73037;51.110;4.706;2023-10-31T10:43:08;10.45;;;4.93;;
83145;SDS011;73037;51.110;4.706;2023-10-31T10:45:43;9.00;;;5.03;;
83145;SDS011;73037;51.110;4.706;2023-10-31T10:48:13;7.15;;;4.32;;
83145;SDS011;73037;51.110;4.706;2023-10-31T10:50:41;7.28;;;3.90;;
83145;SDS011;73037;51.110;4.706;2023-10-31T10:53:13;9.15;;;4.50;;
83145;SDS011;73037;51.110;4.706;2023-10-31T10:55:47;5.95;;;4.40;;
83145;SDS011;73037;51.110;4.706;2023-10-31T10:58:27;7.53;;;4.15;;
83145;SDS011;73037;51.110;4.706;2023-10-31T11:01:24;7.55;;;3.50;;
83145;SDS011;73037;51.110;4.706;2023-10-31T11:03:52;8.23;;;4.20;;
83145;SDS011;73037;51.110;4.706;2023-10-31T11:06:20;6.90;;;3.45;;
83145;SDS011;73037;51.110;4.706;2023-10-31T11:08:46;9.10;;;3.72;;
83145;SDS011;73037;51.110;4.706;2023-10-31T11:11:12;9.45;;;4.30;;
83145;SDS011;73037;51.110;4.706;2023-10-31T11:13:42;5.25;;;3.70;;
83145;SDS011;73037;51.110;4.706;2023-10-31T11:16:12;6.75;;;3.97;;
83145;SDS011;73037;51.110;4.706;2023-10-31T11:18:42;7.28;;;4.20;;
83145;SDS011;73037;51.110;4.706;2023-10-31T11:21:08;10.05;;;3.85;;
83145;SDS011;73037;51.110;4.706;2023-10-31T11:23:35;7.78;;;3.80;;
83145;SDS011;73037;51.110;4.706;2023-10-31T11:30:52;6.10;;;3.50;;
83145;SDS011;73037;51.110;4.706;2023-10-31T11:33:24;6.72;;;3.15;;
83145;SDS011;73037;51.110;4.706;2023-10-31T11:35:50;5.22;;;3.42;;
83145;SDS011;73037;51.110;4.706;2023-10-31T11:38:16;7.15;;;3.67;;
83145;SDS011;73037;51.110;4.706;2023-10-31T11:40:58;6.70;;;3.90;;
83145;SDS011;73037;51.110;4.706;2023-10-31T11:43:25;4.90;;;3.13;;
83145;SDS011;73037;51.110;4.706;2023-10-31T11:46:00;7.80;;;4.00;;
83145;SDS011;73037;51.110;4.706;2023-10-31T11:48:48;10.90;;;4.10;;
83145;SDS011;73037;51.110;4.706;2023-10-31T11:51:16;7.22;;;3.50;;
83145;SDS011;73037;51.110;4.706;2023-10-31T11:53:43;7.95;;;4.07;;
83145;SDS011;73037;51.110;4.706;2023-10-31T11:56:10;7.20;;;3.88;;
83145;SDS011;73037;51.110;4.706;2023-10-31T11:58:36;7.88;;;3.70;;
83145;SDS011;73037;51.110;4.706;2023-10-31T12:01:03;8.43;;;4.00;;
83145;SDS011;73037;51.110;4.706;2023-10-31T12:06:22;6.20;;;3.78;;
83145;SDS011;73037;51.110;4.706;2023-10-31T12:08:48;9.95;;;3.80;;
83145;SDS011;73037;51.110;4.706;2023-10-31T12:13:57;7.70;;;3.95;;
83145;SDS011;73037;51.110;4.706;2023-10-31T12:16:25;9.57;;;4.80;;
83145;SDS011;73037;51.110;4.706;2023-10-31T12:19:01;9.65;;;4.95;;
83145;SDS011;73037;51.110;4.706;2023-10-31T12:21:34;9.52;;;4.70;;
83145;SDS011;73037;51.110;4.706;2023-10-31T12:24:11;11.35;;;4.97;;
83145;SDS011;73037;51.110;4.706;2023-10-31T12:26:38;11.45;;;5.15;;
83145;SDS011;73037;51.110;4.706;2023-10-31T12:29:09;11.27;;;5.07;;
83145;SDS011;73037;51.110;4.706;2023-10-31T12:31:38;11.57;;;5.50;;
83145;SDS011;73037;51.110;4.706;2023-10-31T12:34:07;12.63;;;5.13;;
83145;SDS011;73037;51.110;4.706;2023-10-31T12:36:34;11.13;;;5.38;;
83145;SDS011;73037;51.110;4.706;2023-10-31T12:39:01;11.75;;;5.32;;
83145;SDS011;73037;51.110;4.706;2023-10-31T12:46:29;13.23;;;5.38;;
83145;SDS011;73037;51.110;4.706;2023-10-31T12:48:56;11.57;;;6.00;;
83145;SDS011;73037;51.110;4.706;2023-10-31T12:51:22;13.55;;;5.57;;
83145;SDS011;73037;51.110;4.706;2023-10-31T12:53:51;13.32;;;5.22;;
83145;SDS011;73037;51.110;4.706;2023-10-31T12:56:37;15.25;;;6.10;;
83145;SDS011;73037;51.110;4.706;2023-10-31T12:59:09;13.40;;;5.45;;
83145;SDS011;73037;51.110;4.706;2023-10-31T13:01:44;16.20;;;6.07;;
83145;SDS011;73037;51.110;4.706;2023-10-31T13:04:10;10.65;;;4.97;;
83145;SDS011;73037;51.110;4.706;2023-10-31T13:06:36;11.48;;;5.38;;
83145;SDS011;73037;51.110;4.706;2023-10-31T13:09:03;15.52;;;5.55;;
83145;SDS011;73037;51.110;4.706;2023-10-31T13:11:31;11.43;;;5.07;;
83145;SDS011;73037;51.110;4.706;2023-10-31T13:13:57;12.30;;;4.97;;
83145;SDS011;73037;51.110;4.706;2023-10-31T13:16:23;15.23;;;5.15;;
83145;SDS011;73037;51.110;4.706;2023-10-31T13:18:52;12.95;;;5.20;;
83145;SDS011;73037;51.110;4.706;2023-10-31T13:21:20;13.55;;;5.13;;
83145;SDS011;73037;51.110;4.706;2023-10-31T13:23:46;11.10;;;5.20;;
83145;SDS011;73037;51.110;4.706;2023-10-31T13:26:13;10.57;;;4.57;;
83145;SDS011;73037;51.110;4.706;2023-10-31T13:28:39;9.30;;;4.68;;
83145;SDS011;73037;51.110;4.706;2023-10-31T13:31:06;10.85;;;4.40;;
83145;SDS011;73037;51.110;4.706;2023-10-31T13:33:32;12.77;;;4.78;;
83145;SDS011;73037;51.110;4.706;2023-10-31T13:35:58;9.38;;;4.60;;
83145;SDS011;73037;51.110;4.706;2023-10-31T13:38:24;9.73;;;4.57;;
83145;SDS011;73037;51.110;4.706;2023-10-31T13:40:50;13.23;;;4.72;;
83145;SDS011;73037;51.110;4.706;2023-10-31T13:43:15;11.45;;;4.40;;
83145;SDS011;73037;51.110;4.706;2023-10-31T13:45:41;12.82;;;4.38;;
83145;SDS011;73037;51.110;4.706;2023-10-31T13:48:07;12.98;;;4.90;;
83145;SDS011;73037;51.110;4.706;2023-10-31T13:50:32;9.70;;;3.97;;
83145;SDS011;73037;51.110;4.706;2023-10-31T13:52:58;9.82;;;3.97;;
83145;SDS011;73037;51.110;4.706;2023-10-31T13:55:24;8.38;;;3.97;;
83145;SDS011;73037;51.110;4.706;2023-10-31T13:57:50;8.82;;;4.15;;
83145;SDS011;73037;51.110;4.706;2023-10-31T14:00:16;11.10;;;4.07;;
83145;SDS011;73037;51.110;4.706;2023-10-31T14:02:42;11.18;;;3.88;;
83145;SDS011;73037;51.110;4.706;2023-10-31T14:05:07;10.70;;;4.20;;
83145;SDS011;73037;51.110;4.706;2023-10-31T14:07:33;13.63;;;4.00;;
83145;SDS011;73037;51.110;4.706;2023-10-31T14:10:00;12.77;;;3.78;;
83145;SDS011;73037;51.110;4.706;2023-10-31T14:12:26;9.15;;;3.85;;
83145;SDS011;73037;51.110;4.706;2023-10-31T14:14:54;8.63;;;3.90;;
83145;SDS011;73037;51.110;4.706;2023-10-31T14:17:20;10.75;;;3.80;;
83145;SDS011;73037;51.110;4.706;2023-10-31T14:19:47;9.80;;;3.95;;
83145;SDS011;73037;51.110;4.706;2023-10-31T14:22:13;9.32;;;3.80;;
83145;SDS011;73037;51.110;4.706;2023-10-31T14:24:39;7.57;;;3.58;;
83145;SDS011;73037;51.110;4.706;2023-10-31T14:27:05;8.85;;;3.78;;
83145;SDS011;73037;51.110;4.706;2023-10-31T14:29:31;6.95;;;3.65;;
83145;SDS011;73037;51.110;4.706;2023-10-31T14:31:56;8.50;;;3.72;;
83145;SDS011;73037;51.110;4.706;2023-10-31T14:34:22;6.30;;;4.28;;
83145;SDS011;73037;51.110;4.706;2023-10-31T14:36:48;6.65;;;3.67;;
83145;SDS011;73037;51.110;4.706;2023-10-31T14:39:14;7.93;;;3.75;;
83145;SDS011;73037;51.110;4.706;2023-10-31T14:41:40;10.38;;;3.70;;
83145;SDS011;73037;51.110;4.706;2023-10-31T14:44:06;8.52;;;3.70;;
83145;SDS011;73037;51.110;4.706;2023-10-31T14:46:33;7.20;;;3.60;;
83145;SDS011;73037;51.110;4.706;2023-10-31T14:48:59;6.50;;;3.45;;